createdAt,value
2022-08-03T00:00:32.058Z,100379.78
2022-08-03T00:03:34.812Z,100371.81
2022-08-03T00:06:37.899Z,100384.59
2022-08-03T00:09:40.473Z,100379.81
2022-08-03T00:12:42.725Z,100375.09
2022-08-03T00:15:45.445Z,100374.72
2022-08-03T00:18:47.714Z,100361.16
2022-08-03T00:21:50.533Z,100372.00
2022-08-03T00:24:52.788Z,100389.97
2022-08-03T00:27:55.396Z,100362.41
2022-08-03T00:30:58.344Z,100372.09
2022-08-03T00:34:03.465Z,100390.47
2022-08-03T00:37:05.904Z,100391.31
2022-08-03T00:40:13.629Z,100377.78
2022-08-03T00:43:15.983Z,100390.16
2022-08-03T00:46:21.765Z,100397.78
2022-08-03T00:49:24.876Z,100370.28
2022-08-03T00:52:30.038Z,100380.34
2022-08-03T00:55:32.519Z,100403.53
2022-08-03T00:58:35.307Z,100390.41
2022-08-03T01:01:37.690Z,100389.28
2022-08-03T01:04:40.270Z,100406.87
2022-08-03T01:08:03.479Z,100403.69
2022-08-03T01:11:16.584Z,100411.75
2022-08-03T01:14:31.069Z,100415.75
2022-08-03T01:18:03.379Z,100397.38
2022-08-03T01:21:12.569Z,100410.56
2022-08-03T01:24:54.651Z,100398.22
2022-08-03T01:28:03.654Z,100416.97
2022-08-03T01:31:08.619Z,100408.19
2022-08-03T01:34:14.734Z,100397.44
2022-08-03T01:37:24.608Z,100397.44
2022-08-03T01:40:28.441Z,100423.87
2022-08-03T01:44:28.397Z,100399.06
2022-08-03T01:46:54.353Z,100400.31
2022-08-03T01:49:58.034Z,100408.69
2022-08-03T01:53:01.478Z,100396.28
2022-08-03T01:56:06.433Z,100414.72
2022-08-03T01:59:10.668Z,100393.16
2022-08-03T02:02:33.237Z,100388.75
2022-08-03T02:05:39.435Z,100388.38
2022-08-03T02:08:44.888Z,100409.56
2022-08-03T02:11:48.549Z,100406.34
2022-08-03T02:14:52.093Z,100412.03
2022-08-03T02:17:57.593Z,100407.22
2022-08-03T02:21:10.964Z,100410.06
2022-08-03T02:24:14.127Z,100403.28
2022-08-03T02:27:24.327Z,100415.75
2022-08-03T02:30:39.145Z,100402.91
2022-08-03T02:33:50.624Z,100408.94
2022-08-03T02:36:54.260Z,100412.16
2022-08-03T02:40:03.872Z,100403.00
2022-08-03T02:43:12.190Z,100407.88
2022-08-03T02:46:19.838Z,100393.88
2022-08-03T02:49:49.446Z,100410.69
2022-08-03T02:52:48.865Z,100414.31
2022-08-03T02:55:53.097Z,100398.75
2022-08-03T02:58:58.384Z,100414.75
2022-08-03T03:02:02.300Z,100398.78
2022-08-03T03:05:55.894Z,100393.22
2022-08-03T03:08:29.301Z,100399.22
2022-08-03T03:11:31.810Z,100396.41
2022-08-03T03:14:35.097Z,100413.19
2022-08-03T03:17:37.655Z,100417.22
2022-08-03T03:20:41.255Z,100396.44
2022-08-03T03:23:44.006Z,100402.84
2022-08-03T03:26:48.762Z,100414.03
2022-08-03T03:29:51.242Z,100410.03
2022-08-03T03:32:54.565Z,100419.69
2022-08-03T03:35:58.556Z,100419.69
2022-08-03T03:39:15.522Z,100416.53
2022-08-03T03:42:18.435Z,100408.53
2022-08-03T03:45:21.965Z,100400.19
2022-08-03T03:48:25.227Z,100431.78
2022-08-03T03:51:27.639Z,100433.41
2022-08-03T03:54:42.867Z,100425.00
2022-08-03T03:57:45.626Z,100403.03
2022-08-03T04:00:48.058Z,100423.81
2022-08-03T04:03:50.649Z,100430.63
2022-08-03T04:07:11.345Z,100430.25
2022-08-03T04:10:41.489Z,100413.44
2022-08-03T04:13:55.323Z,100433.00
2022-08-03T04:17:13.146Z,100426.63
2022-08-03T04:20:20.220Z,100439.78
2022-08-03T04:23:38.157Z,100447.37
2022-08-03T04:26:43.286Z,100447.75
2022-08-03T04:29:59.663Z,100450.94
2022-08-03T04:33:03.642Z,100441.31
2022-08-03T04:36:11.016Z,100446.13
2022-08-03T04:39:38.947Z,100458.91
2022-08-03T04:42:44.803Z,100457.37
2022-08-03T04:45:49.600Z,100456.91
2022-08-03T04:48:52.735Z,100437.34
2022-08-03T04:51:55.190Z,100460.13
2022-08-03T04:54:57.845Z,100461.31
2022-08-03T04:58:01.648Z,100447.72
2022-08-03T05:01:04.218Z,100457.31
2022-08-03T05:04:06.583Z,100466.50
2022-08-03T05:07:12.303Z,100473.63
2022-08-03T05:10:16.488Z,100476.41
2022-08-03T05:13:19.386Z,100494.81
2022-08-03T05:16:21.735Z,100494.81
2022-08-03T05:19:24.618Z,100496.00
2022-08-03T05:22:27.209Z,100478.38
2022-08-03T05:25:31.953Z,100494.34
2022-08-03T05:28:34.390Z,100498.75
2022-08-03T05:31:37.088Z,100499.53
2022-08-03T05:34:39.718Z,100508.69
2022-08-03T05:37:42.586Z,100494.28
2022-08-03T05:41:21.658Z,100503.38
2022-08-03T05:44:20.732Z,100483.75
2022-08-03T05:47:23.177Z,100509.69
2022-08-03T05:50:25.762Z,100509.62
2022-08-03T05:53:28.056Z,100493.59
2022-08-03T05:56:30.716Z,100516.78
2022-08-03T05:59:38.485Z,100499.03
2022-08-03T06:02:43.040Z,100515.37
2022-08-03T06:05:55.531Z,100522.50
2022-08-03T06:09:02.783Z,100519.63
2022-08-03T06:12:05.664Z,100512.78
2022-08-03T06:15:11.513Z,100526.66
2022-08-03T06:18:14.405Z,100530.56
2022-08-03T06:21:16.770Z,100513.66
2022-08-03T06:24:19.431Z,100529.44
2022-08-03T06:27:36.697Z,100531.25
2022-08-03T06:30:41.495Z,100514.69
2022-08-03T06:34:29.099Z,100534.50
2022-08-03T06:37:06.553Z,100538.69
2022-08-03T06:40:10.176Z,100531.72
2022-08-03T06:43:16.528Z,100516.31
2022-08-03T06:46:19.414Z,100537.22
2022-08-03T06:49:22.042Z,100522.97
2022-08-03T06:52:38.340Z,100532.16
2022-08-03T06:55:42.420Z,100547.50
2022-08-03T06:58:45.091Z,100540.19
2022-08-03T07:01:49.725Z,100541.28
2022-08-03T07:04:52.172Z,100547.44
2022-08-03T07:07:56.750Z,100526.38
2022-08-03T07:10:59.196Z,100542.03
2022-08-03T07:14:01.813Z,100539.78
2022-08-03T07:17:12.024Z,100530.66
2022-08-03T07:20:18.394Z,100533.47
2022-08-03T07:23:23.072Z,100545.81
2022-08-03T07:26:25.731Z,100544.91
2022-08-03T07:29:28.139Z,100543.72
2022-08-03T07:32:31.686Z,100547.69
2022-08-03T07:35:34.207Z,100537.97
2022-08-03T07:38:37.272Z,100550.06
2022-08-03T07:41:39.654Z,100545.34
2022-08-03T07:44:44.658Z,100535.41
2022-08-03T07:47:53.245Z,100539.50
2022-08-03T07:50:56.324Z,100551.19
2022-08-03T07:53:59.108Z,100542.66
2022-08-03T07:57:01.623Z,100533.41
2022-08-03T08:00:09.125Z,100531.34
2022-08-03T08:03:14.150Z,100531.00
2022-08-03T08:06:18.317Z,100531.47
2022-08-03T08:09:20.581Z,100525.09
2022-08-03T08:12:23.130Z,100530.97
2022-08-03T08:15:25.655Z,100537.00
2022-08-03T08:18:33.613Z,100540.84
2022-08-03T08:21:53.791Z,100540.31
2022-08-03T08:25:01.657Z,100530.97
2022-08-03T08:28:31.806Z,100551.72
2022-08-03T08:31:27.285Z,100544.59
2022-08-03T08:34:29.661Z,100528.87
2022-08-03T08:37:35.480Z,100542.56
2022-08-03T08:40:37.603Z,100550.59
2022-08-03T08:43:41.070Z,100544.41
2022-08-03T08:46:44.145Z,100529.88
2022-08-03T08:50:04.043Z,100532.37
2022-08-03T08:53:17.631Z,100539.81
2022-08-03T08:56:26.712Z,100546.06
2022-08-03T08:59:48.931Z,100541.94
2022-08-03T09:02:52.861Z,100540.34
2022-08-03T09:05:56.420Z,100536.94
2022-08-03T09:08:59.203Z,100518.87
2022-08-03T09:12:28.128Z,100519.13
2022-08-03T09:15:32.389Z,100520.78
2022-08-03T09:18:34.636Z,100521.84
2022-08-03T09:21:37.203Z,100525.22
2022-08-03T09:25:21.545Z,100522.66
2022-08-03T09:28:57.226Z,100532.59
2022-08-03T09:31:43.612Z,100542.28
2022-08-03T09:34:47.595Z,100532.94
2022-08-03T09:38:13.932Z,100531.44
2022-08-03T09:41:20.174Z,100530.53
2022-08-03T09:44:35.861Z,100504.41
2022-08-03T09:47:44.629Z,100512.69
2022-08-03T09:50:57.063Z,100528.31
2022-08-03T09:54:32.677Z,100509.75
2022-08-03T09:57:35.320Z,100507.34
2022-08-03T10:00:55.819Z,100512.03
2022-08-03T10:04:04.053Z,100511.31
2022-08-03T10:07:07.031Z,100507.13
2022-08-03T10:10:30.030Z,100506.88
2022-08-03T10:13:33.838Z,100497.16
2022-08-03T10:16:38.824Z,100502.06
2022-08-03T10:19:41.632Z,100493.88
2022-08-03T10:22:44.476Z,100497.87
2022-08-03T10:25:53.174Z,100484.53
2022-08-03T10:28:59.712Z,100492.97
2022-08-03T10:32:09.392Z,100489.50
2022-08-03T10:35:19.865Z,100485.69
2022-08-03T10:38:37.415Z,100491.59
2022-08-03T10:41:42.616Z,100489.34
2022-08-03T10:44:44.886Z,100462.91
2022-08-03T10:47:52.188Z,100470.87
2022-08-03T10:50:54.920Z,100446.81
2022-08-03T10:53:59.036Z,100444.44
2022-08-03T10:57:22.675Z,100452.09
2022-08-03T11:00:27.638Z,100456.94
2022-08-03T11:03:30.020Z,100455.59
2022-08-03T11:06:37.290Z,100448.44
2022-08-03T11:09:47.508Z,100445.00
2022-08-03T11:12:50.277Z,100442.94
2022-08-03T11:15:59.805Z,100426.87
2022-08-03T11:19:09.856Z,100434.09
2022-08-03T11:22:13.887Z,100424.91
2022-08-03T11:25:54.076Z,100417.97
2022-08-03T11:28:40.148Z,100425.31
2022-08-03T11:31:50.547Z,100412.28
2022-08-03T11:35:12.413Z,100427.56
2022-08-03T11:38:15.394Z,100416.03
2022-08-03T11:41:44.871Z,100421.19
2022-08-03T11:44:49.048Z,100395.69
2022-08-03T11:47:54.863Z,100407.78
2022-08-03T11:50:57.465Z,100407.44
2022-08-03T11:54:02.780Z,100404.72
2022-08-03T11:57:05.494Z,100399.19
2022-08-03T12:00:33.993Z,100407.34
2022-08-03T12:03:36.604Z,100387.38
2022-08-03T12:06:56.395Z,100403.16
2022-08-03T12:10:06.584Z,100379.63
2022-08-03T12:14:36.660Z,100392.41
2022-08-03T12:16:34.860Z,100372.34
2022-08-03T12:19:43.921Z,100391.12
2022-08-03T12:22:46.453Z,100378.34
2022-08-03T12:25:50.930Z,100369.03
2022-08-03T12:28:53.531Z,100378.16
2022-08-03T12:31:56.439Z,100361.25
2022-08-03T12:35:01.639Z,100374.50
2022-08-03T12:38:04.513Z,100366.59
2022-08-03T12:41:13.677Z,100376.41
2022-08-03T12:44:16.039Z,100352.00
2022-08-03T12:47:18.776Z,100364.00
2022-08-03T12:50:31.506Z,100347.16
2022-08-03T12:53:37.407Z,100338.25
2022-08-03T12:57:10.788Z,100357.25
2022-08-03T13:00:28.849Z,100335.41
2022-08-03T13:03:43.627Z,100350.47
2022-08-03T13:07:03.891Z,100352.94
2022-08-03T13:10:08.304Z,100344.84
2022-08-03T13:13:11.080Z,100341.25
2022-08-03T13:16:18.751Z,100327.19
2022-08-03T13:19:21.847Z,100317.94
2022-08-03T13:22:27.312Z,100330.34
2022-08-03T13:25:29.986Z,100314.66
2022-08-03T13:28:32.229Z,100326.44
2022-08-03T13:31:34.710Z,100319.41
2022-08-03T13:34:38.069Z,100322.37
2022-08-03T13:37:40.668Z,100306.19
2022-08-03T13:40:42.967Z,100332.47
2022-08-03T13:43:50.023Z,100317.84
2022-08-03T13:47:02.685Z,100317.84
2022-08-03T13:50:05.509Z,100309.34
2022-08-03T13:53:07.669Z,100291.81
2022-08-03T13:56:10.126Z,100303.72
2022-08-03T13:59:12.405Z,100296.81
2022-08-03T14:02:15.070Z,100285.09
2022-08-03T14:05:17.788Z,100275.31
2022-08-03T14:08:20.036Z,100271.53
2022-08-03T14:11:22.614Z,100273.66
2022-08-03T14:14:26.049Z,100275.47
2022-08-03T14:17:42.097Z,100264.44
2022-08-03T14:20:54.341Z,100276.56
2022-08-03T14:23:58.689Z,100248.09
2022-08-03T14:27:09.066Z,100269.44
2022-08-03T14:30:12.693Z,100268.38
2022-08-03T14:33:15.100Z,100222.91
2022-08-03T14:36:17.603Z,100241.50
2022-08-03T14:39:19.860Z,100256.41
2022-08-03T14:42:22.487Z,100261.41
2022-08-03T14:45:24.770Z,100258.91
2022-08-03T14:50:31.972Z,100245.72
2022-08-03T14:51:53.254Z,100249.94
2022-08-03T14:54:56.410Z,100243.34
2022-08-03T14:57:59.991Z,100248.38
2022-08-03T15:01:02.770Z,100237.19
2022-08-03T15:04:25.140Z,100230.91
2022-08-03T15:07:27.644Z,100241.34
2022-08-03T15:10:43.902Z,100251.03
2022-08-03T15:13:47.548Z,100237.97
2022-08-03T15:16:49.825Z,100234.56
2022-08-03T15:20:01.297Z,100229.03
2022-08-03T15:23:07.996Z,100219.28
2022-08-03T15:26:30.609Z,100220.50
2022-08-03T15:30:05.795Z,100243.19
2022-08-03T15:32:55.386Z,100225.16
2022-08-03T15:36:00.026Z,100233.31
2022-08-03T15:39:02.679Z,100237.66
2022-08-03T15:42:05.210Z,100234.72
2022-08-03T15:45:08.529Z,100216.19
2022-08-03T15:48:10.764Z,100223.16
2022-08-03T15:51:13.368Z,100219.50
2022-08-03T15:54:15.699Z,100226.97
2022-08-03T15:57:18.621Z,100224.44
2022-08-03T16:00:21.186Z,100224.03
2022-08-03T16:03:36.536Z,100223.13
2022-08-03T16:06:38.835Z,100225.84
2022-08-03T16:09:43.896Z,100221.00
2022-08-03T16:12:47.788Z,100230.37
2022-08-03T16:15:50.725Z,100223.63
2022-08-03T16:18:53.540Z,100220.03
2022-08-03T16:21:56.087Z,100223.72
2022-08-03T16:24:59.671Z,100217.22
2022-08-03T16:28:07.896Z,100206.97
2022-08-03T16:31:14.904Z,100218.50
2022-08-03T16:34:17.379Z,100210.66
2022-08-03T16:37:38.524Z,100215.06
2022-08-03T16:40:41.981Z,100216.66
2022-08-03T16:43:44.266Z,100214.78
2022-08-03T16:46:46.836Z,100199.66
2022-08-03T16:49:54.528Z,100213.87
2022-08-03T16:52:58.317Z,100214.38
2022-08-03T16:56:00.723Z,100198.09
2022-08-03T16:59:04.397Z,100206.00
2022-08-03T17:02:12.702Z,100201.91
2022-08-03T17:05:17.645Z,100206.34
2022-08-03T17:08:26.449Z,100216.13
2022-08-03T17:11:33.052Z,100230.03
2022-08-03T17:14:36.051Z,100218.97
2022-08-03T17:17:53.853Z,100222.06
2022-08-03T17:20:58.534Z,100229.63
2022-08-03T17:24:04.681Z,100230.41
2022-08-03T17:28:41.655Z,100233.22
2022-08-03T17:31:00.039Z,100227.63
2022-08-03T17:34:04.561Z,100245.59
2022-08-03T17:37:49.782Z,100225.00
2022-08-03T17:40:34.574Z,100235.97
2022-08-03T17:44:13.421Z,100245.59
2022-08-03T17:47:04.577Z,100233.13
2022-08-03T17:50:09.788Z,100257.06
2022-08-03T17:53:31.458Z,100234.56
2022-08-03T17:57:26.390Z,100251.91
2022-08-03T18:00:52.244Z,100246.50
2022-08-03T18:04:02.906Z,100231.88
2022-08-03T18:07:18.801Z,100254.28
2022-08-03T18:10:24.278Z,100235.44
2022-08-03T18:13:31.010Z,100238.06
2022-08-03T18:16:56.414Z,100257.31
2022-08-03T18:20:02.712Z,100238.53
2022-08-03T18:23:09.123Z,100247.97
2022-08-03T18:26:12.207Z,100244.16
2022-08-03T18:29:15.778Z,100264.66
2022-08-03T18:32:18.818Z,100260.16
2022-08-03T18:35:24.707Z,100276.69
2022-08-03T18:38:30.462Z,100276.47
2022-08-03T18:41:35.357Z,100276.72
2022-08-03T18:44:53.987Z,100276.97
2022-08-03T18:48:27.110Z,100276.53
2022-08-03T18:51:42.933Z,100289.72
2022-08-03T18:55:14.094Z,100289.44
2022-08-03T18:58:46.114Z,100283.69
2022-08-03T19:02:00.419Z,100270.44
2022-08-03T19:05:08.977Z,100298.63
2022-08-03T19:08:28.611Z,100285.38
2022-08-03T19:12:12.553Z,100287.19
2022-08-03T19:15:13.031Z,100304.53
2022-08-03T19:18:17.877Z,100307.47
2022-08-03T19:21:21.857Z,100298.13
2022-08-03T19:24:26.513Z,100316.72
2022-08-03T19:27:31.224Z,100313.19
2022-08-03T19:30:38.868Z,100318.47
2022-08-03T19:33:55.945Z,100318.59
2022-08-03T19:37:01.032Z,100325.94
2022-08-03T19:40:10.890Z,100333.31
2022-08-03T19:43:52.994Z,100309.81
2022-08-03T19:47:09.705Z,100329.44
2022-08-03T19:50:14.278Z,100331.13
2022-08-03T19:53:19.800Z,100334.38
2022-08-03T19:56:59.748Z,100339.25
2022-08-03T20:00:09.288Z,100336.53
2022-08-03T20:03:21.719Z,100340.25
2022-08-03T20:06:26.416Z,100340.34
2022-08-03T20:09:30.314Z,100331.28
2022-08-03T20:12:38.745Z,100342.13
2022-08-03T20:15:45.667Z,100348.69
2022-08-03T20:18:50.705Z,100341.53
2022-08-03T20:21:56.175Z,100338.47
2022-08-03T20:25:06.899Z,100280.00
2022-08-03T20:28:14.912Z,100289.00
2022-08-03T20:31:23.844Z,100334.84
2022-08-03T20:34:43.820Z,100332.56
2022-08-03T20:37:46.224Z,100322.91
2022-08-03T20:40:51.954Z,100346.53
2022-08-03T20:44:00.917Z,100345.84
2022-08-03T20:47:08.413Z,100344.31
2022-08-03T20:50:13.071Z,100336.38
2022-08-03T20:53:49.222Z,100338.06
2022-08-03T20:57:00.593Z,100333.31
2022-08-03T21:00:21.936Z,100331.34
2022-08-03T21:07:04.049Z,100263.75
2022-08-03T21:10:28.430Z,100315.13
2022-08-03T21:13:07.968Z,100331.09
2022-08-03T21:13:46.680Z,100337.31
2022-08-03T21:17:14.037Z,100347.75
2022-08-03T21:20:32.105Z,100339.81
2022-08-03T21:23:48.806Z,100343.16
2022-08-03T21:26:56.382Z,100345.25
2022-08-03T21:30:05.570Z,100344.56
2022-08-03T21:33:13.337Z,100347.53
2022-08-03T21:36:16.173Z,100356.53
2022-08-03T21:39:18.974Z,100290.34
2022-08-03T21:42:23.949Z,100362.47
2022-08-03T21:45:26.698Z,100360.09
2022-08-03T21:48:36.119Z,100370.66
2022-08-03T21:51:39.345Z,100363.50
2022-08-03T21:54:44.896Z,100369.19
2022-08-03T21:57:52.293Z,100370.88
2022-08-03T22:00:55.453Z,100367.69
2022-08-03T22:03:58.562Z,100375.81
2022-08-03T22:07:01.206Z,100381.44
2022-08-03T22:10:06.042Z,100374.19
2022-08-03T22:13:08.328Z,100373.84
2022-08-03T22:16:13.951Z,100372.69
2022-08-03T22:19:16.283Z,100383.16
2022-08-03T22:22:28.473Z,100381.22
2022-08-03T22:25:35.158Z,100379.25
2022-08-03T22:28:38.411Z,100378.56
2022-08-03T22:31:58.439Z,100383.09
2022-08-03T22:35:04.156Z,100389.16
2022-08-03T22:38:08.579Z,100383.22
2022-08-03T22:41:11.509Z,100390.91
2022-08-03T22:44:14.008Z,100385.34
2022-08-03T22:47:22.405Z,100389.37
2022-08-03T22:50:32.344Z,100385.84
2022-08-03T22:53:36.556Z,100392.69
2022-08-03T22:56:38.971Z,100401.59
2022-08-03T22:59:42.103Z,100391.97
2022-08-03T23:02:48.293Z,100393.63
2022-08-03T23:06:00.518Z,100391.28
2022-08-03T23:09:11.220Z,100371.03
2022-08-03T23:12:19.298Z,100395.41
2022-08-03T23:15:26.153Z,100399.44
2022-08-03T23:18:33.017Z,100405.91
2022-08-03T23:21:53.466Z,100407.72
2022-08-03T23:25:05.130Z,100398.09
2022-08-03T23:28:09.393Z,100406.19
2022-08-03T23:31:14.812Z,100408.62
2022-08-03T23:34:36.974Z,100401.50
2022-08-03T23:38:04.643Z,100412.47
2022-08-03T23:41:06.328Z,100419.41
2022-08-03T23:44:15.897Z,100422.69
2022-08-03T23:47:18.619Z,100400.03
2022-08-03T23:50:21.837Z,100422.81
2022-08-03T23:53:40.697Z,100409.22
2022-08-03T23:56:58.232Z,100406.84
